EICK Airport Information

Runway Information
Runway 07 Length 4298 ft width 148 ft
Elevation 471 ft Threshold ft Heading 63
Runway 25 Length 4298 ft Width 148 ft
Elevation 502 ft Threshold ft Heading 243
Runway 16 Length 6998 ft width 148 ft
Elevation 477 ft Threshold ft Heading 160
Runway 34 Length 6998 ft Width 148 ft
Elevation 460 ft Threshold ft Heading 340
Airport Frequencies
Type APP Name APP Frequency 119.9 MHZ
Type ATIS Name ATIS Frequency 120.925 MHZ
Type GND Name GND Frequency 121.85 MHZ
Type TWR Name TWR Frequency 119.3 MHZ
Airport Navaids
Type VOR-DME Name Cork Frequency 114600 KHZ
Airport Weather Information & NOTAM
ADDS - METARS form results

(1736 UTC 27 January 2023)
Data provider http://aviationweather.gov/metar/data/
 
METAR text: EICK 271730Z 34006KT 9999 SCT026 04/M01 Q1033 NOSIG
Conditions at: EICK (CORK ARPT/CORCAI, IE) observed 1730 UTC 27 January 2023
Temperature: 4.0°C (39°F)
Dewpoint: -1.0°C (30°F) [RH = 70%]
Pressure (altimeter): 30.50 inches Hg (1033.0 mb)
Winds: from the NNW (340 degrees) at 7 MPH (6 knots; 3.1 m/s)
Visibility: 6 or more miles (10+ km)
Ceiling: at least 12,000 feet AGL
Clouds: scattered clouds at 2600 feet AGL
Weather: no significant weather observed at this time

METAR text: EICK 271700Z 33007KT 9999 FEW020 SCT030 04/M01 Q1033 NOSIG
Conditions at: EICK (CORK ARPT/CORCAI, IE) observed 1700 UTC 27 January 2023
Temperature: 4.0°C (39°F)
Dewpoint: -1.0°C (30°F) [RH = 70%]
Pressure (altimeter): 30.50 inches Hg (1033.0 mb)
Winds: from the NNW (330 degrees) at 8 MPH (7 knots; 3.6 m/s)
Visibility: 6 or more miles (10+ km)
Ceiling: at least 12,000 feet AGL
Clouds: few clouds at 2000 feet AGL
scattered clouds at 3000 feet AGL
Weather: no significant weather observed at this time

Forecast for: EICK (CORK ARPT/CORCAI, IE)
Text: TAF EICK 271700Z 2718/2818 31005KT 9999 FEW020 BKN030
Forecast period: 1800 UTC 27 January 2023 to 1800 UTC 28 January 2023
Forecast type: FROM: standard forecast or significant change
Winds: from the NW (310 degrees) at 6 MPH (5 knots; 2.6 m/s)
Visibility: 6 or more miles (10+ km)
Ceiling: 3000 feet AGL
Clouds: few clouds at 2000 feet AGL
broken clouds at 3000 feet AGL
Weather: no significant weather forecast for this period
Text: PROB40
Forecast period: 0600 to 1100 UTC 28 January 2023
Forecast type: TEMPORARY: The following changes expected for less than half the time period
Visibility: 2.49 miles (4.01 km)
Ceiling: 1000 feet AGL
Clouds: broken clouds at 1000 feet AGL
Weather: -RA -DZ  (light rain, light drizzle)
Text: TEMPO 2806/2811 4000 -RADZ BKN010
Forecast period: 1100 to 1600 UTC 28 January 2023
Forecast type: TEMPORARY: The following changes expected for less than half the time period
Visibility: 1.55 miles (2.49 km)
Ceiling: 700 feet AGL
Clouds: broken clouds at 700 feet AGL
Weather: -RA -DZ  (light rain, light drizzle)